Time;durP1;ratioP1;P1;durP2;ratioP2;P2;SDS_P1;SDS_P2;PMS_P1;PMS_P2;Temp;Humidity;BMP_temperature;BMP_pressure;BME280_temperature;BME280_humidity;BME280_pressure;Samples;Min_cycle;Max_cycle;Signal;HPM_P1;HPM_P2
2023/02/18 00:01:01;;;;;;;1.08;0.85;;;;;;;;;;5111675;28;20031;-32
2023/02/18 00:03:28;;;;;;;1.15;0.70;;;;;;;;;;5111734;28;20035;-34
2023/02/18 00:05:54;;;;;;;0.95;0.73;;;;;;;;;;5111570;28;20442;-36
2023/02/18 00:08:21;;;;;;;1.30;0.70;;;;;;;;;;5111645;28;20465;-34
2023/02/18 00:10:47;;;;;;;0.90;0.60;;;;;;;;;;5111529;28;20048;-37
2023/02/18 00:13:13;;;;;;;1.30;0.80;;;;;;;;;;5111473;28;20094;-33
2023/02/18 00:15:39;;;;;;;0.88;0.75;;;;;;;;;;5111505;28;20035;-33
2023/02/18 00:18:06;;;;;;;1.05;0.75;;;;;;;;;;5111423;28;20385;-33
2023/02/18 00:20:34;;;;;;;0.75;0.60;;;;;;;;;;5111684;28;20035;-33
2023/02/18 00:23:00;;;;;;;1.15;0.75;;;;;;;;;;5111292;28;20473;-35
2023/02/18 00:25:26;;;;;;;1.42;0.75;;;;;;;;;;5111366;28;20046;-36
2023/02/18 00:27:52;;;;;;;1.00;0.70;;;;;;;;;;5111237;28;20089;-31
2023/02/18 00:30:18;;;;;;;1.08;0.77;;;;;;;;;;5111461;28;20028;-32
2023/02/18 00:32:44;;;;;;;1.30;0.68;;;;;;;;;;5111244;28;20020;-32
2023/02/18 00:35:10;;;;;;;0.70;0.60;;;;;;;;;;5111526;28;20378;-31
2023/02/18 00:37:36;;;;;;;1.33;0.60;;;;;;;;;;5111065;28;20019;-33
2023/02/18 00:40:02;;;;;;;0.95;0.80;;;;;;;;;;5112349;28;20388;-32
2023/02/18 00:42:28;;;;;;;1.20;0.70;;;;;;;;;;5115143;28;20024;-36
2023/02/18 00:44:54;;;;;;;1.67;0.70;;;;;;;;;;5113522;28;20098;-31
2023/02/18 00:47:20;;;;;;;1.10;0.60;;;;;;;;;;5114714;28;20450;-34
2023/02/18 00:49:46;;;;;;;0.70;0.60;;;;;;;;;;5115044;28;20057;-32
2023/02/18 00:52:12;;;;;;;1.00;0.60;;;;;;;;;;5114953;28;20023;-36
2023/02/18 00:54:38;;;;;;;0.75;0.60;;;;;;;;;;5114972;28;20481;-36
2023/02/18 00:57:04;;;;;;;0.70;0.50;;;;;;;;;;5114860;28;20027;-34
2023/02/18 00:59:30;;;;;;;1.55;0.60;;;;;;;;;;5114750;28;20035;-35
2023/02/18 01:01:56;;;;;;;1.20;0.55;;;;;;;;;;5114357;28;20046;-33
2023/02/18 01:04:22;;;;;;;1.38;0.60;;;;;;;;;;5113145;28;20027;-31
2023/02/18 01:06:48;;;;;;;1.95;0.70;;;;;;;;;;5114289;28;20385;-33
2023/02/18 01:09:15;;;;;;;0.93;0.70;;;;;;;;;;5114717;28;20567;-32
2023/02/18 01:11:41;;;;;;;0.73;0.60;;;;;;;;;;5114547;28;20027;-35
2023/02/18 01:14:07;;;;;;;0.65;0.60;;;;;;;;;;5114322;28;20511;-35
2023/02/18 01:16:33;;;;;;;0.75;0.60;;;;;;;;;;5112493;28;20059;-33
2023/02/18 01:18:59;;;;;;;0.70;0.60;;;;;;;;;;5114181;28;20070;-36
2023/02/18 01:21:25;;;;;;;0.82;0.60;;;;;;;;;;5114133;28;20401;-37
2023/02/18 01:23:51;;;;;;;1.33;0.70;;;;;;;;;;5114470;28;20034;-34
2023/02/18 01:26:17;;;;;;;1.50;0.70;;;;;;;;;;5114361;28;20118;-31
2023/02/18 01:28:43;;;;;;;1.40;0.70;;;;;;;;;;5114206;28;20034;-35
2023/02/18 01:31:12;;;;;;;0.68;0.57;;;;;;;;;;5113964;28;20016;-34
2023/02/18 01:33:38;;;;;;;0.93;0.70;;;;;;;;;;5114146;28;20020;-33
2023/02/18 01:36:04;;;;;;;0.93;0.60;;;;;;;;;;5113797;28;20020;-35
2023/02/18 01:38:30;;;;;;;0.88;0.60;;;;;;;;;;5114132;28;20421;-31
2023/02/18 01:40:56;;;;;;;0.60;0.60;;;;;;;;;;5114098;28;20034;-31
2023/02/18 01:43:22;;;;;;;0.98;0.75;;;;;;;;;;5113979;28;20042;-32
2023/02/18 01:45:57;;;;;;;1.17;0.63;;;;;;;;;;5113554;28;20023;-33
2023/02/18 01:48:29;;;;;;;0.60;0.60;;;;;;;;;;5113798;28;20028;-31
2023/02/18 01:51:04;;;;;;;1.08;0.80;;;;;;;;;;5113678;28;20016;-35
2023/02/18 01:53:37;;;;;;;1.60;0.80;;;;;;;;;;5113257;28;20362;-33
2023/02/18 01:56:04;;;;;;;0.57;0.47;;;;;;;;;;5113915;28;20024;-31
2023/02/18 01:58:30;;;;;;;0.70;0.50;;;;;;;;;;5112410;28;20359;-36
2023/02/18 02:00:56;;;;;;;0.50;0.50;;;;;;;;;;5113430;28;20091;-32
2023/02/18 02:03:22;;;;;;;0.73;0.60;;;;;;;;;;5113448;28;20052;-33
2023/02/18 02:05:48;;;;;;;0.52;0.52;;;;;;;;;;5113311;28;20408;-34
2023/02/18 02:08:14;;;;;;;0.80;0.60;;;;;;;;;;5113476;28;20016;-38
2023/02/18 02:10:40;;;;;;;0.90;0.80;;;;;;;;;;5111732;28;20030;-36
2023/02/18 02:13:13;;;;;;;1.02;0.70;;;;;;;;;;5113155;28;20500;-36
2023/02/18 02:15:48;;;;;;;1.08;0.80;;;;;;;;;;5113230;28;20032;-33
2023/02/18 02:18:25;;;;;;;0.90;0.68;;;;;;;;;;5113065;28;20030;-33
2023/02/18 02:21:10;;;;;;;0.85;0.68;;;;;;;;;;5113130;28;20076;-34
2023/02/18 02:23:36;;;;;;;;;;;;;;;;;;5113392;28;20024;-34
2023/02/18 02:26:08;;;;;;;0.95;0.70;;;;;;;;;;5112797;28;19964;-34
2023/02/18 02:28:47;;;;;;;1.23;0.80;;;;;;;;;;5112969;27;20477;-36
2023/02/18 02:31:13;;;;;;;0.60;0.60;;;;;;;;;;5111431;28;20023;-32
2023/02/18 02:33:39;;;;;;;0.82;0.50;;;;;;;;;;5111385;28;20020;-31
2023/02/18 02:36:16;;;;;;;1.05;0.60;;;;;;;;;;5112657;28;20027;-36
2023/02/18 02:38:51;;;;;;;0.90;0.63;;;;;;;;;;5112801;28;20030;-31
2023/02/18 02:41:36;;;;;;;1.25;0.57;;;;;;;;;;5112541;28;20362;-32
2023/02/18 02:44:02;;;;;;;0.63;0.55;;;;;;;;;;5112383;28;20020;-35
2023/02/18 02:46:31;;;;;;;0.82;0.60;;;;;;;;;;5112300;28;20076;-36
2023/02/18 02:49:00;;;;;;;0.82;0.70;;;;;;;;;;5112453;28;20038;-34
2023/02/18 02:51:32;;;;;;;0.63;0.57;;;;;;;;;;5112396;28;20027;-33
2023/02/18 02:54:13;;;;;;;0.70;0.60;;;;;;;;;;5112418;28;20024;-34
2023/02/18 02:56:39;;;;;;;0.63;0.60;;;;;;;;;;5112327;28;20024;-34
2023/02/18 02:59:07;;;;;;;0.57;0.52;;;;;;;;;;5112234;28;20036;-32
2023/02/18 03:01:38;;;;;;;0.80;0.70;;;;;;;;;;5111010;28;20035;-33
2023/02/18 03:04:13;;;;;;;1.08;0.70;;;;;;;;;;5112190;27;20034;-36
2023/02/18 03:06:51;;;;;;;0.90;0.45;;;;;;;;;;5112083;28;20028;-37
2023/02/18 03:09:26;;;;;;;0.60;0.60;;;;;;;;;;5112395;28;20061;-32
2023/02/18 03:12:11;;;;;;;0.90;0.70;;;;;;;;;;5112340;28;20035;-34
2023/02/18 03:14:55;;;;;;;0.50;0.50;;;;;;;;;;5112335;28;20039;-34
2023/02/18 03:17:24;;;;;;;1.27;0.63;;;;;;;;;;5112214;28;20028;-33
2023/02/18 03:20:00;;;;;;;0.93;0.63;;;;;;;;;;5110920;28;20036;-32
2023/02/18 03:22:30;;;;;;;1.00;0.70;;;;;;;;;;5112381;28;20055;-33
2023/02/18 03:24:57;;;;;;;0.60;0.50;;;;;;;;;;5112215;28;20023;-33
2023/02/18 03:27:31;;;;;;;1.05;0.60;;;;;;;;;;5112105;28;20413;-34
2023/02/18 03:30:01;;;;;;;0.60;0.60;;;;;;;;;;5112293;28;20122;-31
2023/02/18 03:32:28;;;;;;;0.55;0.55;;;;;;;;;;5112123;28;20036;-33
2023/02/18 03:34:57;;;;;;;0.75;0.65;;;;;;;;;;5111952;28;20031;-33
2023/02/18 03:37:23;;;;;;;0.70;0.65;;;;;;;;;;5112295;28;20109;-32
2023/02/18 03:39:51;;;;;;;1.25;0.68;;;;;;;;;;5112021;28;20539;-31
2023/02/18 03:42:17;;;;;;;0.82;0.68;;;;;;;;;;5111664;28;20075;-35
2023/02/18 03:44:44;;;;;;;0.50;0.50;;;;;;;;;;5111819;28;20028;-31
2023/02/18 03:47:10;;;;;;;0.70;0.60;;;;;;;;;;5111749;28;20030;-33
2023/02/18 03:49:36;;;;;;;0.70;0.60;;;;;;;;;;5111918;28;20539;-32
2023/02/18 03:52:02;;;;;;;0.60;0.50;;;;;;;;;;5111775;28;20393;-31
2023/02/18 03:54:28;;;;;;;0.98;0.65;;;;;;;;;;5112002;28;20016;-31
2023/02/18 03:56:54;;;;;;;0.80;0.70;;;;;;;;;;5111501;28;20028;-35
2023/02/18 03:59:20;;;;;;;0.60;0.47;;;;;;;;;;5111571;28;20027;-35
2023/02/18 04:01:46;;;;;;;0.93;0.60;;;;;;;;;;5111709;28;20027;-33
2023/02/18 04:04:12;;;;;;;0.80;0.60;;;;;;;;;;5110309;28;20024;-34
2023/02/18 04:06:38;;;;;;;0.70;0.63;;;;;;;;;;5111293;28;20029;-33
2023/02/18 04:09:07;;;;;;;0.90;0.63;;;;;;;;;;5111681;28;20019;-31
2023/02/18 04:11:33;;;;;;;0.80;0.68;;;;;;;;;;5111617;28;20392;-36
2023/02/18 04:13:59;;;;;;;0.80;0.65;;;;;;;;;;5111843;28;20027;-33
2023/02/18 04:16:25;;;;;;;0.82;0.70;;;;;;;;;;5114754;28;20419;-35
2023/02/18 04:18:51;;;;;;;1.13;0.60;;;;;;;;;;5115642;28;20028;-37
2023/02/18 04:21:17;;;;;;;0.90;0.70;;;;;;;;;;5115332;28;20032;-36
2023/02/18 04:23:43;;;;;;;0.70;0.50;;;;;;;;;;5115584;27;20027;-34
2023/02/18 04:26:09;;;;;;;0.70;0.70;;;;;;;;;;5115162;28;20475;-33
2023/02/18 04:28:35;;;;;;;1.00;0.60;;;;;;;;;;5115385;28;20138;-31
2023/02/18 04:31:01;;;;;;;0.88;0.68;;;;;;;;;;5115362;28;20023;-35
2023/02/18 04:33:27;;;;;;;0.80;0.70;;;;;;;;;;5115245;27;20026;-33
2023/02/18 04:35:54;;;;;;;0.90;0.60;;;;;;;;;;5114897;27;20068;-31
2023/02/18 04:38:20;;;;;;;1.10;0.55;;;;;;;;;;5115156;28;20027;-31
2023/02/18 04:40:46;;;;;;;0.88;0.50;;;;;;;;;;5114909;28;20036;-32
2023/02/18 04:43:12;;;;;;;1.08;0.75;;;;;;;;;;5115223;28;20110;-34
2023/02/18 04:45:38;;;;;;;0.65;0.57;;;;;;;;;;5115242;27;20066;-36
2023/02/18 04:48:04;;;;;;;1.05;0.60;;;;;;;;;;5114957;28;20039;-31
2023/02/18 04:50:30;;;;;;;0.93;0.60;;;;;;;;;;5115129;28;20019;-33
2023/02/18 04:52:56;;;;;;;0.77;0.60;;;;;;;;;;5114991;28;20024;-34
2023/02/18 04:55:22;;;;;;;0.70;0.52;;;;;;;;;;5114883;28;20051;-33
2023/02/18 04:57:48;;;;;;;0.50;0.40;;;;;;;;;;5114807;28;20586;-35
2023/02/18 05:00:16;;;;;;;0.60;0.55;;;;;;;;;;5114649;28;20110;-33
2023/02/18 05:02:42;;;;;;;0.60;0.50;;;;;;;;;;5114829;28;20041;-32
2023/02/18 05:05:08;;;;;;;0.50;0.50;;;;;;;;;;5114723;28;20118;-33
2023/02/18 05:07:34;;;;;;;0.60;0.50;;;;;;;;;;5114498;28;20050;-31
2023/02/18 05:10:00;;;;;;;0.68;0.40;;;;;;;;;;5114586;28;20031;-34
2023/02/18 05:12:26;;;;;;;0.65;0.50;;;;;;;;;;5114783;28;20049;-32
2023/02/18 05:14:52;;;;;;;0.63;0.50;;;;;;;;;;5114616;28;20023;-31
2023/02/18 05:17:18;;;;;;;0.93;0.70;;;;;;;;;;5114325;28;20023;-36
2023/02/18 05:19:44;;;;;;;0.60;0.50;;;;;;;;;;5114296;28;20106;-36
2023/02/18 05:22:10;;;;;;;0.70;0.50;;;;;;;;;;5113938;28;20051;-36
2023/02/18 05:24:36;;;;;;;0.90;0.52;;;;;;;;;;5114274;28;20036;-33
2023/02/18 05:27:02;;;;;;;0.60;0.60;;;;;;;;;;5112570;27;20389;-36
2023/02/18 05:29:28;;;;;;;0.50;0.50;;;;;;;;;;5114024;28;20024;-37
2023/02/18 05:31:54;;;;;;;0.60;0.50;;;;;;;;;;5112836;28;20535;-34
2023/02/18 05:34:20;;;;;;;1.02;0.63;;;;;;;;;;5114149;28;20027;-37
2023/02/18 05:36:46;;;;;;;0.45;0.38;;;;;;;;;;5113655;27;20072;-34
2023/02/18 05:39:12;;;;;;;0.50;0.40;;;;;;;;;;5112481;28;20548;-33
2023/02/18 05:41:38;;;;;;;0.80;0.57;;;;;;;;;;5114167;28;20074;-31
2023/02/18 05:46:49;;;;;;;0.57;0.45;;;;;;;;;;5113672;28;20555;-37
2023/02/18 05:49:15;;;;;;;0.73;0.60;;;;;;;;;;5113875;28;20027;-35
2023/02/18 05:51:41;;;;;;;0.30;0.30;;;;;;;;;;5113878;28;20016;-35
2023/02/18 05:54:07;;;;;;;0.50;0.40;;;;;;;;;;5113519;27;20130;-33
2023/02/18 05:56:33;;;;;;;0.75;0.60;;;;;;;;;;5113728;28;20045;-31
2023/02/18 05:58:59;;;;;;;0.80;0.43;;;;;;;;;;5113966;28;20035;-32
2023/02/18 06:01:25;;;;;;;0.80;0.55;;;;;;;;;;5113886;28;20110;-32
2023/02/18 06:03:51;;;;;;;0.52;0.50;;;;;;;;;;5113377;27;20431;-35
2023/02/18 06:06:17;;;;;;;0.73;0.63;;;;;;;;;;5113078;28;20020;-31
2023/02/18 06:08:43;;;;;;;0.63;0.55;;;;;;;;;;5113491;28;20390;-31
2023/02/18 06:11:09;;;;;;;0.50;0.40;;;;;;;;;;5113455;28;20106;-31
2023/02/18 06:13:35;;;;;;;0.60;0.45;;;;;;;;;;5113365;28;20020;-32
2023/02/18 06:16:01;;;;;;;0.82;0.63;;;;;;;;;;5113272;28;20090;-31
2023/02/18 06:18:27;;;;;;;1.02;0.55;;;;;;;;;;5113237;28;20129;-37
2023/02/18 06:20:53;;;;;;;0.60;0.50;;;;;;;;;;5113176;28;20107;-34
2023/02/18 06:23:19;;;;;;;0.60;0.52;;;;;;;;;;5113211;28;20027;-32
2023/02/18 06:25:48;;;;;;;0.40;0.40;;;;;;;;;;5111739;28;20495;-33
2023/02/18 06:28:14;;;;;;;0.60;0.50;;;;;;;;;;5113113;28;20545;-32
2023/02/18 06:30:40;;;;;;;0.65;0.40;;;;;;;;;;5113375;28;20570;-32
2023/02/18 06:33:06;;;;;;;0.88;0.50;;;;;;;;;;5113000;28;20016;-32
2023/02/18 06:35:32;;;;;;;0.85;0.52;;;;;;;;;;5113152;27;20034;-33
2023/02/18 06:37:58;;;;;;;0.82;0.63;;;;;;;;;;5110934;28;20039;-32
2023/02/18 06:40:24;;;;;;;0.95;0.70;;;;;;;;;;5112722;28;20031;-33
2023/02/18 06:42:50;;;;;;;0.63;0.50;;;;;;;;;;5113221;28;20031;-32
2023/02/18 06:45:16;;;;;;;0.60;0.43;;;;;;;;;;5112921;28;20489;-32
2023/02/18 06:47:42;;;;;;;0.65;0.55;;;;;;;;;;5112198;28;20019;-31
2023/02/18 06:50:08;;;;;;;0.82;0.63;;;;;;;;;;5112814;27;20449;-32
2023/02/18 06:52:36;;;;;;;0.80;0.63;;;;;;;;;;5112700;28;20024;-33
2023/02/18 06:55:02;;;;;;;0.60;0.50;;;;;;;;;;5112657;28;20020;-34
2023/02/18 06:57:29;;;;;;;0.73;0.60;;;;;;;;;;5111087;28;20031;-34
2023/02/18 06:59:55;;;;;;;0.88;0.60;;;;;;;;;;5111020;28;20023;-35
2023/02/18 07:02:21;;;;;;;0.63;0.52;;;;;;;;;;5112081;28;20035;-33
2023/02/18 07:04:47;;;;;;;1.23;0.70;;;;;;;;;;5112250;28;20034;-31
2023/02/18 07:07:13;;;;;;;0.90;0.60;;;;;;;;;;5112018;28;20027;-31
2023/02/18 07:09:39;;;;;;;1.17;0.80;;;;;;;;;;5112027;28;20031;-34
2023/02/18 07:12:05;;;;;;;0.90;0.70;;;;;;;;;;5112212;28;20027;-33
2023/02/18 07:14:31;;;;;;;0.80;0.70;;;;;;;;;;5112262;28;20051;-32
2023/02/18 07:16:57;;;;;;;0.88;0.47;;;;;;;;;;5111943;28;20047;-31
2023/02/18 07:19:23;;;;;;;0.73;0.60;;;;;;;;;;5112466;28;20122;-34
2023/02/18 07:21:49;;;;;;;0.63;0.60;;;;;;;;;;5112006;28;20032;-36
2023/02/18 07:24:15;;;;;;;0.75;0.57;;;;;;;;;;5112115;28;20110;-32
2023/02/18 07:26:41;;;;;;;0.65;0.60;;;;;;;;;;5112061;28;20031;-32
2023/02/18 07:29:07;;;;;;;1.02;0.63;;;;;;;;;;5112035;28;20028;-36
2023/02/18 07:31:33;;;;;;;0.93;0.75;;;;;;;;;;5111820;28;20079;-33
2023/02/18 07:33:59;;;;;;;1.02;0.70;;;;;;;;;;5112079;28;20023;-34
2023/02/18 07:36:25;;;;;;;0.82;0.60;;;;;;;;;;5111551;28;20023;-33
2023/02/18 07:38:51;;;;;;;0.85;0.63;;;;;;;;;;5112033;28;20492;-32
2023/02/18 07:41:22;;;;;;;1.10;0.70;;;;;;;;;;5110527;28;20028;-33
2023/02/18 07:43:48;;;;;;;0.98;0.70;;;;;;;;;;5112013;28;20035;-35
2023/02/18 07:46:14;;;;;;;0.80;0.60;;;;;;;;;;5111996;28;20114;-33
2023/02/18 07:48:40;;;;;;;0.80;0.60;;;;;;;;;;5111694;28;20034;-36
2023/02/18 07:51:07;;;;;;;0.80;0.70;;;;;;;;;;5114774;28;20046;-33
2023/02/18 07:53:34;;;;;;;1.45;0.80;;;;;;;;;;5114658;28;20031;-31
2023/02/18 07:56:00;;;;;;;0.70;0.60;;;;;;;;;;5115989;28;20385;-38
2023/02/18 07:58:28;;;;;;;1.10;0.80;;;;;;;;;;5115972;28;20024;-31
2023/02/18 08:00:55;;;;;;;2.00;0.90;;;;;;;;;;5115687;28;20039;-32
2023/02/18 08:03:24;;;;;;;0.90;0.73;;;;;;;;;;5115999;28;20047;-37
2023/02/18 08:05:51;;;;;;;0.80;0.77;;;;;;;;;;5115704;28;20034;-35
2023/02/18 08:08:21;;;;;;;2.67;0.93;;;;;;;;;;5115596;28;20028;-36
2023/02/18 08:10:48;;;;;;;0.90;0.63;;;;;;;;;;5116169;28;20035;-35
2023/02/18 08:13:14;;;;;;;0.85;0.65;;;;;;;;;;5115632;28;20016;-31
2023/02/18 08:15:40;;;;;;;0.80;0.75;;;;;;;;;;5115678;28;20073;-36
2023/02/18 08:18:07;;;;;;;1.00;0.80;;;;;;;;;;5115534;28;20051;-34
2023/02/18 08:20:37;;;;;;;1.00;0.82;;;;;;;;;;5115536;28;20027;-31
2023/02/18 08:23:03;;;;;;;1.05;0.77;;;;;;;;;;5115716;28;20584;-34
2023/02/18 08:25:29;;;;;;;1.00;0.80;;;;;;;;;;5115293;28;20050;-33
2023/02/18 08:27:55;;;;;;;1.50;0.80;;;;;;;;;;5115101;27;20027;-33
2023/02/18 08:30:21;;;;;;;0.80;0.70;;;;;;;;;;5115252;28;20022;-36
2023/02/18 08:32:47;;;;;;;1.10;0.95;;;;;;;;;;5115320;27;20036;-33
2023/02/18 08:35:14;;;;;;;1.23;0.80;;;;;;;;;;5115403;28;20111;-33
2023/02/18 08:37:40;;;;;;;1.45;0.82;;;;;;;;;;5115126;28;20028;-36
2023/02/18 08:40:06;;;;;;;1.38;0.73;;;;;;;;;;5115353;28;20030;-37
2023/02/18 08:42:33;;;;;;;1.30;0.85;;;;;;;;;;5114259;28;20370;-33
2023/02/18 08:44:59;;;;;;;1.70;1.10;;;;;;;;;;5115494;28;20038;-34
2023/02/18 08:47:25;;;;;;;1.30;1.00;;;;;;;;;;5113575;28;20024;-32
2023/02/18 08:49:52;;;;;;;1.23;0.80;;;;;;;;;;5115006;28;20439;-33
2023/02/18 08:52:18;;;;;;;1.00;0.80;;;;;;;;;;5114782;28;20436;-33
2023/02/18 08:54:44;;;;;;;2.45;0.98;;;;;;;;;;5114348;28;20085;-33
2023/02/18 08:57:10;;;;;;;1.63;1.02;;;;;;;;;;5114577;28;20051;-32
2023/02/18 08:59:36;;;;;;;1.20;0.85;;;;;;;;;;5114786;28;20106;-32
2023/02/18 09:02:03;;;;;;;2.13;1.00;;;;;;;;;;5113043;28;20172;-36
2023/02/18 09:04:29;;;;;;;1.98;1.17;;;;;;;;;;5114724;27;20556;-35
2023/02/18 09:06:55;;;;;;;1.52;1.00;;;;;;;;;;5114633;28;20493;-36
2023/02/18 09:09:21;;;;;;;1.20;1.00;;;;;;;;;;5113035;28;20509;-34
2023/02/18 09:11:47;;;;;;;0.73;0.70;;;;;;;;;;5114482;28;20031;-31
2023/02/18 09:14:14;;;;;;;1.60;0.90;;;;;;;;;;5114582;28;20028;-33
2023/02/18 09:16:40;;;;;;;0.90;0.70;;;;;;;;;;5114164;28;20019;-32
2023/02/18 09:19:06;;;;;;;0.98;0.80;;;;;;;;;;5114313;27;20485;-35
2023/02/18 09:21:32;;;;;;;1.20;1.08;;;;;;;;;;5114281;28;20045;-33
2023/02/18 09:23:58;;;;;;;1.67;1.10;;;;;;;;;;5114272;28;20067;-34
2023/02/18 09:26:25;;;;;;;2.08;1.00;;;;;;;;;;5114043;28;20032;-34
2023/02/18 09:28:52;;;;;;;1.38;0.95;;;;;;;;;;5113895;28;20049;-31
2023/02/18 09:31:19;;;;;;;0.73;0.68;;;;;;;;;;5114204;28;20016;-35
2023/02/18 09:33:50;;;;;;;0.88;0.75;;;;;;;;;;5114030;28;20020;-32
2023/02/18 09:36:16;;;;;;;0.93;0.80;;;;;;;;;;5114052;28;20068;-34
2023/02/18 09:38:42;;;;;;;0.98;0.75;;;;;;;;;;5114111;28;20036;-34
2023/02/18 09:41:14;;;;;;;1.13;0.88;;;;;;;;;;5114292;28;20032;-33
2023/02/18 09:43:42;;;;;;;1.45;1.02;;;;;;;;;;5112733;28;20416;-37
2023/02/18 09:46:19;;;;;;;1.20;0.80;;;;;;;;;;5113731;28;20023;-31
2023/02/18 09:48:46;;;;;;;1.55;0.98;;;;;;;;;;5113847;28;20038;-33
2023/02/18 09:51:15;;;;;;;2.15;1.00;;;;;;;;;;5113799;28;20389;-36
2023/02/18 09:53:45;;;;;;;1.00;0.90;;;;;;;;;;5113789;28;20051;-33
2023/02/18 09:56:13;;;;;;;2.08;1.08;;;;;;;;;;5113763;28;20170;-42
2023/02/18 09:58:40;;;;;;;0.82;0.73;;;;;;;;;;5113744;28;20055;-42
2023/02/18 10:01:10;;;;;;;1.35;0.90;;;;;;;;;;5113702;28;20454;-42
2023/02/18 10:03:37;;;;;;;0.93;0.80;;;;;;;;;;5113495;28;20066;-39
2023/02/18 10:06:05;;;;;;;0.82;0.70;;;;;;;;;;5113183;28;20500;-42
2023/02/18 10:08:47;;;;;;;1.15;1.00;;;;;;;;;;5113480;28;20030;-42
2023/02/18 10:11:15;;;;;;;1.73;1.10;;;;;;;;;;5113755;28;20035;-41
2023/02/18 10:13:42;;;;;;;1.27;1.00;;;;;;;;;;5112687;28;20027;-41
2023/02/18 10:16:09;;;;;;;1.58;0.90;;;;;;;;;;5113229;27;20062;-42
2023/02/18 10:18:44;;;;;;;1.58;0.80;;;;;;;;;;5113346;28;20020;-41
2023/02/18 10:21:12;;;;;;;1.52;1.10;;;;;;;;;;5113271;28;20030;-40
2023/02/18 10:23:40;;;;;;;1.23;0.98;;;;;;;;;;5113014;28;20499;-41
2023/02/18 10:26:09;;;;;;;0.90;0.80;;;;;;;;;;5112948;28;20031;-41
2023/02/18 10:28:36;;;;;;;3.03;0.90;;;;;;;;;;5112993;28;20030;-41
2023/02/18 10:31:07;;;;;;;1.30;0.90;;;;;;;;;;5112925;28;20050;-37
2023/02/18 10:33:35;;;;;;;1.23;0.85;;;;;;;;;;5113223;28;20023;-36
2023/02/18 10:36:04;;;;;;;1.70;0.98;;;;;;;;;;5111262;28;20047;-39
2023/02/18 10:38:33;;;;;;;1.05;0.90;;;;;;;;;;5112921;28;20039;-41
2023/02/18 10:41:09;;;;;;;1.40;1.00;;;;;;;;;;5112895;28;20423;-41
2023/02/18 10:43:38;;;;;;;1.40;0.95;;;;;;;;;;5113017;28;20051;-42
2023/02/18 10:46:16;;;;;;;1.33;0.77;;;;;;;;;;5112580;28;20107;-42
2023/02/18 10:48:54;;;;;;;1.33;0.85;;;;;;;;;;5112697;28;20027;-38
2023/02/18 10:51:22;;;;;;;1.20;0.80;;;;;;;;;;5112533;27;20020;-40
2023/02/18 10:53:50;;;;;;;1.17;0.68;;;;;;;;;;5112402;28;20504;-41
2023/02/18 10:56:34;;;;;;;0.80;0.68;;;;;;;;;;5112245;28;20493;-42
2023/02/18 10:59:04;;;;;;;0.93;0.70;;;;;;;;;;5112277;28;20806;-42
2023/02/18 11:01:30;;;;;;;1.65;0.88;;;;;;;;;;5112963;28;20031;-45
2023/02/18 11:04:16;;;;;;;0.90;0.60;;;;;;;;;;5112566;28;20028;-42
2023/02/18 11:06:45;;;;;;;0.70;0.60;;;;;;;;;;5112146;28;20080;-39
2023/02/18 11:09:24;;;;;;;1.73;0.88;;;;;;;;;;5112155;28;20015;-34
2023/02/18 11:11:50;;;;;;;1.30;0.90;;;;;;;;;;5112174;28;20027;-40
2023/02/18 11:14:33;;;;;;;1.75;0.88;;;;;;;;;;5112106;28;20016;-41
2023/02/18 11:17:07;;;;;;;1.95;1.00;;;;;;;;;;5111883;28;20048;-39
2023/02/18 11:19:34;;;;;;;1.67;0.88;;;;;;;;;;5112081;28;20508;-41
2023/02/18 11:22:12;;;;;;;1.48;0.70;;;;;;;;;;5111862;28;20034;-36
2023/02/18 11:24:38;;;;;;;1.38;0.80;;;;;;;;;;5111999;28;20027;-40
2023/02/18 11:27:13;;;;;;;1.17;0.90;;;;;;;;;;5111977;28;20031;-38
2023/02/18 11:29:39;;;;;;;1.23;0.93;;;;;;;;;;5112006;28;20027;-38
2023/02/18 11:32:11;;;;;;;1.58;0.93;;;;;;;;;;5111819;28;20156;-42
2023/02/18 11:34:37;;;;;;;1.08;0.80;;;;;;;;;;5112355;28;20423;-42
2023/02/18 11:37:11;;;;;;;1.23;0.90;;;;;;;;;;5110850;28;20096;-42
2023/02/18 11:39:42;;;;;;;0.98;0.70;;;;;;;;;;5111860;28;20412;-41
2023/02/18 11:42:12;;;;;;;1.05;0.88;;;;;;;;;;5112387;28;20032;-38
2023/02/18 11:44:47;;;;;;;0.80;0.50;;;;;;;;;;5112047;28;20551;-40
2023/02/18 11:47:13;;;;;;;1.13;0.90;;;;;;;;;;5111664;28;20508;-41
2023/02/18 11:49:41;;;;;;;1.10;0.70;;;;;;;;;;5111824;28;20492;-42
2023/02/18 11:52:13;;;;;;;0.70;0.60;;;;;;;;;;5111720;28;20051;-39
2023/02/18 11:54:39;;;;;;;1.45;0.73;;;;;;;;;;5111896;28;20024;-38
2023/02/18 11:57:06;;;;;;;1.05;0.60;;;;;;;;;;5111672;28;20038;-37
2023/02/18 11:59:34;;;;;;;0.82;0.70;;;;;;;;;;5111427;28;20497;-42
2023/02/18 12:02:02;;;;;;;1.27;0.88;;;;;;;;;;5111794;28;20526;-41
2023/02/18 12:04:49;;;;;;;1.00;0.77;;;;;;;;;;5110388;28;20039;-41
2023/02/18 12:07:21;;;;;;;1.10;0.75;;;;;;;;;;5111960;28;20030;-38
2023/02/18 12:09:58;;;;;;;1.27;1.10;;;;;;;;;;5111457;28;20027;-42
2023/02/18 12:12:24;;;;;;;0.90;0.70;;;;;;;;;;5111552;28;20034;-39
2023/02/18 12:14:51;;;;;;;1.85;1.00;;;;;;;;;;5111690;28;20043;-40
2023/02/18 12:17:36;;;;;;;1.15;0.80;;;;;;;;;;5111492;28;20012;-36
2023/02/18 12:20:11;;;;;;;1.20;0.85;;;;;;;;;;5111436;28;20453;-39
2023/02/18 12:22:45;;;;;;;0.95;0.68;;;;;;;;;;5111527;28;20088;-42
2023/02/18 12:25:11;;;;;;;1.10;0.80;;;;;;;;;;5111603;28;20027;-39
2023/02/18 12:27:40;;;;;;;1.00;0.75;;;;;;;;;;5111295;28;20550;-40
2023/02/18 12:30:18;;;;;;;1.00;0.75;;;;;;;;;;5111181;28;20035;-37
2023/02/18 12:32:44;;;;;;;1.00;0.80;;;;;;;;;;5111263;28;20478;-39
2023/02/18 12:35:29;;;;;;;0.90;0.70;;;;;;;;;;5111629;28;20049;-36
2023/02/18 12:38:14;;;;;;;0.90;0.70;;;;;;;;;;5115109;28;20019;-38
2023/02/18 12:40:43;;;;;;;1.30;0.93;;;;;;;;;;5115031;28;20027;-42
2023/02/18 12:43:27;;;;;;;0.90;0.77;;;;;;;;;;5114765;28;20051;-39
2023/02/18 12:45:53;;;;;;;;;;;;;;;;;;5115503;28;20029;-41
2023/02/18 12:48:46;;;;;;;1.60;0.88;;;;;;;;;;5115139;28;20010;-41
2023/02/18 12:51:31;;;;;;;1.10;0.65;;;;;;;;;;5113011;28;20035;-40
2023/02/18 12:54:16;;;;;;;1.23;0.95;;;;;;;;;;5114867;28;20043;-40
2023/02/18 12:56:42;;;;;;;;;;;;;;;;;;5115210;28;20428;-41
2023/02/18 12:59:13;;;;;;;1.10;0.85;;;;;;;;;;5115174;28;19912;-40
2023/02/18 13:01:48;;;;;;;1.42;1.02;;;;;;;;;;5114644;28;20032;-41
2023/02/18 13:04:32;;;;;;;1.48;1.00;;;;;;;;;;5114647;27;20024;-41
2023/02/18 13:06:58;;;;;;;;;;;;;;;;;;5115015;28;20492;-39
2023/02/18 13:09:30;;;;;;;2.67;0.95;;;;;;;;;;5113238;28;19947;-41
2023/02/18 13:11:59;;;;;;;1.98;1.20;;;;;;;;;;5114512;28;20035;-39
2023/02/18 13:14:31;;;;;;;1.52;0.80;;;;;;;;;;5114431;28;20650;-41
2023/02/18 13:16:58;;;;;;;1.42;1.02;;;;;;;;;;5114573;28;20020;-40
2023/02/18 13:19:26;;;;;;;1.33;0.98;;;;;;;;;;5114450;28;20481;-37
2023/02/18 13:21:54;;;;;;;1.98;0.90;;;;;;;;;;5114359;28;20366;-40
2023/02/18 13:24:33;;;;;;;1.05;0.82;;;;;;;;;;5114451;28;20118;-37
2023/02/18 13:27:05;;;;;;;1.20;0.80;;;;;;;;;;5113881;28;20106;-40
2023/02/18 13:29:34;;;;;;;1.42;0.82;;;;;;;;;;5114115;28;20028;-39
2023/02/18 13:32:01;;;;;;;1.52;1.10;;;;;;;;;;5114146;28;20501;-35
2023/02/18 13:34:38;;;;;;;1.77;0.90;;;;;;;;;;5114184;28;20031;-37
2023/02/18 13:37:04;;;;;;;2.75;0.90;;;;;;;;;;5113928;28;20019;-41
2023/02/18 13:39:31;;;;;;;1.73;0.98;;;;;;;;;;5112827;28;20028;-42
2023/02/18 13:42:15;;;;;;;2.67;0.98;;;;;;;;;;5114005;28;20035;-38
2023/02/18 13:44:56;;;;;;;1.38;0.93;;;;;;;;;;5114000;28;20030;-40
2023/02/18 13:47:38;;;;;;;1.35;0.90;;;;;;;;;;5112835;28;20020;-40
2023/02/18 13:50:22;;;;;;;1.60;1.00;;;;;;;;;;5113613;28;20027;-38
2023/02/18 13:52:49;;;;;;;2.92;0.95;;;;;;;;;;5113767;28;20489;-40
2023/02/18 13:55:20;;;;;;;1.15;1.00;;;;;;;;;;5113563;28;20032;-39
2023/02/18 13:57:47;;;;;;;2.13;1.20;;;;;;;;;;5113326;28;20023;-39
2023/02/18 14:00:24;;;;;;;1.30;0.98;;;;;;;;;;5113338;28;20049;-41
2023/02/18 14:02:58;;;;;;;1.45;1.05;;;;;;;;;;5113558;28;20110;-39
2023/02/18 14:05:24;;;;;;;1.20;1.05;;;;;;;;;;5113483;28;20397;-37
2023/02/18 14:08:06;;;;;;;1.67;1.10;;;;;;;;;;5113310;28;20032;-40
2023/02/18 14:10:34;;;;;;;1.50;1.25;;;;;;;;;;5113290;28;20390;-41
2023/02/18 14:13:19;;;;;;;1.70;1.10;;;;;;;;;;5113671;28;20012;-40
2023/02/18 14:15:59;;;;;;;1.90;0.88;;;;;;;;;;5113146;28;20028;-40
2023/02/18 14:18:32;;;;;;;1.50;1.08;;;;;;;;;;5113371;27;20031;-39
2023/02/18 14:21:13;;;;;;;1.90;1.00;;;;;;;;;;5113459;28;20066;-42
2023/02/18 14:23:41;;;;;;;1.38;1.05;;;;;;;;;;5113201;28;20648;-42
2023/02/18 14:26:07;;;;;;;2.15;1.08;;;;;;;;;;5112843;28;20023;-38
2023/02/18 14:28:33;;;;;;;1.95;1.10;;;;;;;;;;5112813;28;20031;-36
2023/02/18 14:31:03;;;;;;;1.95;1.20;;;;;;;;;;5112788;28;20054;-38
2023/02/18 14:33:35;;;;;;;2.28;1.40;;;;;;;;;;5113365;28;20053;-41
2023/02/18 14:36:10;;;;;;;1.48;1.20;;;;;;;;;;5112991;28;20438;-39
2023/02/18 14:38:42;;;;;;;1.42;1.10;;;;;;;;;;5113133;28;20020;-38
2023/02/18 14:41:31;;;;;;;2.00;1.38;;;;;;;;;;5112866;28;20031;-39
2023/02/18 14:44:00;;;;;;;2.42;1.30;;;;;;;;;;5112877;28;20110;-37
2023/02/18 14:46:45;;;;;;;1.75;1.25;;;;;;;;;;5112527;28;20044;-42
2023/02/18 14:49:30;;;;;;;2.03;1.08;;;;;;;;;;5112430;28;20027;-35
2023/02/18 14:51:57;;;;;;;2.00;1.10;;;;;;;;;;5112428;28;20028;-36
2023/02/18 14:54:24;;;;;;;2.08;1.40;;;;;;;;;;5112605;28;20024;-40
2023/02/18 14:56:56;;;;;;;2.20;1.30;;;;;;;;;;5112521;28;20024;-40